sensor_id;sensor_type;location;lat;lon;timestamp;temperature;humidity
75819;DHT22;64453;51.944;9.796;2024-03-07T00:00:43;8.20;58.00
75819;DHT22;64453;51.944;9.796;2024-03-07T00:03:10;8.20;58.30
75819;DHT22;64453;51.944;9.796;2024-03-07T00:05:37;8.00;58.20
75819;DHT22;64453;51.944;9.796;2024-03-07T00:08:03;8.00;58.50
75819;DHT22;64453;51.944;9.796;2024-03-07T00:10:31;7.90;58.70
75819;DHT22;64453;51.944;9.796;2024-03-07T00:12:58;8.10;58.60
75819;DHT22;64453;51.944;9.796;2024-03-07T00:15:27;7.50;58.30
75819;DHT22;64453;51.944;9.796;2024-03-07T00:17:55;7.50;58.90
75819;DHT22;64453;51.944;9.796;2024-03-07T00:20:22;7.30;59.10
75819;DHT22;64453;51.944;9.796;2024-03-07T00:22:49;7.50;59.70
75819;DHT22;64453;51.944;9.796;2024-03-07T00:25:16;7.60;58.90
75819;DHT22;64453;51.944;9.796;2024-03-07T00:27:45;7.60;59.10
75819;DHT22;64453;51.944;9.796;2024-03-07T00:30:12;7.80;58.60
75819;DHT22;64453;51.944;9.796;2024-03-07T00:32:45;7.90;58.10
75819;DHT22;64453;51.944;9.796;2024-03-07T00:35:12;7.70;58.60
75819;DHT22;64453;51.944;9.796;2024-03-07T00:37:40;7.40;58.50
75819;DHT22;64453;51.944;9.796;2024-03-07T00:40:08;7.60;58.50
75819;DHT22;64453;51.944;9.796;2024-03-07T00:42:35;7.70;58.70
75819;DHT22;64453;51.944;9.796;2024-03-07T00:45:03;7.70;58.00
75819;DHT22;64453;51.944;9.796;2024-03-07T00:47:32;7.70;58.10
75819;DHT22;64453;51.944;9.796;2024-03-07T00:50:00;7.10;58.60
75819;DHT22;64453;51.944;9.796;2024-03-07T00:52:27;7.30;58.80
75819;DHT22;64453;51.944;9.796;2024-03-07T00:54:54;7.50;58.20
75819;DHT22;64453;51.944;9.796;2024-03-07T00:57:21;7.40;58.40
75819;DHT22;64453;51.944;9.796;2024-03-07T00:59:49;7.60;57.90
75819;DHT22;64453;51.944;9.796;2024-03-07T01:02:16;7.40;57.70
75819;DHT22;64453;51.944;9.796;2024-03-07T01:04:44;7.30;58.00
75819;DHT22;64453;51.944;9.796;2024-03-07T01:07:12;7.20;58.00
75819;DHT22;64453;51.944;9.796;2024-03-07T01:09:39;7.10;57.50
75819;DHT22;64453;51.944;9.796;2024-03-07T01:12:06;7.10;57.90
75819;DHT22;64453;51.944;9.796;2024-03-07T01:14:35;6.80;57.80
75819;DHT22;64453;51.944;9.796;2024-03-07T01:17:02;7.00;58.30
75819;DHT22;64453;51.944;9.796;2024-03-07T01:19:32;6.60;58.70
75819;DHT22;64453;51.944;9.796;2024-03-07T01:21:59;7.10;58.80
75819;DHT22;64453;51.944;9.796;2024-03-07T01:24:28;7.20;58.10
75819;DHT22;64453;51.944;9.796;2024-03-07T01:26:55;7.40;58.80
75819;DHT22;64453;51.944;9.796;2024-03-07T01:29:22;7.50;57.90
75819;DHT22;64453;51.944;9.796;2024-03-07T01:31:48;7.60;57.50
75819;DHT22;64453;51.944;9.796;2024-03-07T01:34:15;7.50;57.60
75819;DHT22;64453;51.944;9.796;2024-03-07T01:36:42;7.30;57.60
75819;DHT22;64453;51.944;9.796;2024-03-07T01:39:10;7.30;57.80
75819;DHT22;64453;51.944;9.796;2024-03-07T01:41:39;7.40;57.50
75819;DHT22;64453;51.944;9.796;2024-03-07T01:44:07;7.00;57.50
75819;DHT22;64453;51.944;9.796;2024-03-07T01:46:34;7.20;57.20
75819;DHT22;64453;51.944;9.796;2024-03-07T01:49:01;7.10;56.80
75819;DHT22;64453;51.944;9.796;2024-03-07T01:51:28;7.20;57.40
75819;DHT22;64453;51.944;9.796;2024-03-07T01:53:55;7.30;57.80
75819;DHT22;64453;51.944;9.796;2024-03-07T01:56:23;7.20;57.70
75819;DHT22;64453;51.944;9.796;2024-03-07T01:58:52;6.70;58.20
75819;DHT22;64453;51.944;9.796;2024-03-07T02:01:20;7.00;59.20
75819;DHT22;64453;51.944;9.796;2024-03-07T02:03:47;7.20;59.10
75819;DHT22;64453;51.944;9.796;2024-03-07T02:06:14;7.30;58.50
75819;DHT22;64453;51.944;9.796;2024-03-07T02:08:41;7.40;58.40
75819;DHT22;64453;51.944;9.796;2024-03-07T02:11:08;7.40;58.50
75819;DHT22;64453;51.944;9.796;2024-03-07T02:13:36;7.50;58.60
75819;DHT22;64453;51.944;9.796;2024-03-07T02:16:05;7.60;58.40
75819;DHT22;64453;51.944;9.796;2024-03-07T02:18:33;7.60;58.60
75819;DHT22;64453;51.944;9.796;2024-03-07T02:21:07;7.60;58.50
75819;DHT22;64453;51.944;9.796;2024-03-07T02:23:37;7.70;58.80
75819;DHT22;64453;51.944;9.796;2024-03-07T02:26:04;7.70;58.80
75819;DHT22;64453;51.944;9.796;2024-03-07T02:28:30;7.70;58.90
75819;DHT22;64453;51.944;9.796;2024-03-07T02:30:57;7.70;58.60
75819;DHT22;64453;51.944;9.796;2024-03-07T02:33:24;7.50;58.50
75819;DHT22;64453;51.944;9.796;2024-03-07T02:35:51;7.70;58.70
75819;DHT22;64453;51.944;9.796;2024-03-07T02:38:20;7.50;59.10
75819;DHT22;64453;51.944;9.796;2024-03-07T02:40:47;7.50;58.90
75819;DHT22;64453;51.944;9.796;2024-03-07T02:43:13;7.50;59.10
75819;DHT22;64453;51.944;9.796;2024-03-07T02:45:41;7.50;59.00
75819;DHT22;64453;51.944;9.796;2024-03-07T02:48:08;7.40;59.00
75819;DHT22;64453;51.944;9.796;2024-03-07T02:50:35;7.60;59.00
75819;DHT22;64453;51.944;9.796;2024-03-07T02:53:03;7.60;58.70
75819;DHT22;64453;51.944;9.796;2024-03-07T02:55:32;7.60;58.70
75819;DHT22;64453;51.944;9.796;2024-03-07T02:57:59;7.50;59.00
75819;DHT22;64453;51.944;9.796;2024-03-07T03:00:26;7.50;58.80
75819;DHT22;64453;51.944;9.796;2024-03-07T03:02:55;7.40;58.90
75819;DHT22;64453;51.944;9.796;2024-03-07T03:05:22;7.40;59.50
75819;DHT22;64453;51.944;9.796;2024-03-07T03:07:50;7.30;59.60
75819;DHT22;64453;51.944;9.796;2024-03-07T03:10:21;7.50;59.70
75819;DHT22;64453;51.944;9.796;2024-03-07T03:12:53;7.50;59.50
75819;DHT22;64453;51.944;9.796;2024-03-07T03:15:21;7.40;59.90
75819;DHT22;64453;51.944;9.796;2024-03-07T03:17:48;7.50;59.90
75819;DHT22;64453;51.944;9.796;2024-03-07T03:20:15;7.60;59.60
75819;DHT22;64453;51.944;9.796;2024-03-07T03:22:51;7.60;59.30
75819;DHT22;64453;51.944;9.796;2024-03-07T03:25:19;7.60;59.50
75819;DHT22;64453;51.944;9.796;2024-03-07T03:27:47;7.60;59.40
75819;DHT22;64453;51.944;9.796;2024-03-07T03:30:16;7.60;59.60
75819;DHT22;64453;51.944;9.796;2024-03-07T03:32:45;7.70;59.80
75819;DHT22;64453;51.944;9.796;2024-03-07T03:35:13;7.80;59.70
75819;DHT22;64453;51.944;9.796;2024-03-07T03:37:41;7.70;60.10
75819;DHT22;64453;51.944;9.796;2024-03-07T03:40:09;7.60;60.50
75819;DHT22;64453;51.944;9.796;2024-03-07T03:42:38;7.60;60.50
75819;DHT22;64453;51.944;9.796;2024-03-07T03:45:07;7.40;60.60
75819;DHT22;64453;51.944;9.796;2024-03-07T03:47:37;7.20;60.10
75819;DHT22;64453;51.944;9.796;2024-03-07T03:50:05;7.30;61.30
75819;DHT22;64453;51.944;9.796;2024-03-07T03:52:33;7.20;61.80
75819;DHT22;64453;51.944;9.796;2024-03-07T03:55:02;7.50;61.50
75819;DHT22;64453;51.944;9.796;2024-03-07T03:57:31;7.60;61.10
75819;DHT22;64453;51.944;9.796;2024-03-07T03:59:58;7.70;61.20
75819;DHT22;64453;51.944;9.796;2024-03-07T04:02:25;7.80;60.80
75819;DHT22;64453;51.944;9.796;2024-03-07T04:04:53;7.80;60.90
75819;DHT22;64453;51.944;9.796;2024-03-07T04:07:20;7.70;60.70
75819;DHT22;64453;51.944;9.796;2024-03-07T04:09:48;7.40;61.40
75819;DHT22;64453;51.944;9.796;2024-03-07T04:12:15;7.40;62.10
75819;DHT22;64453;51.944;9.796;2024-03-07T04:14:42;7.50;61.70
75819;DHT22;64453;51.944;9.796;2024-03-07T04:17:10;7.50;61.80
75819;DHT22;64453;51.944;9.796;2024-03-07T04:19:39;7.60;61.60
75819;DHT22;64453;51.944;9.796;2024-03-07T04:22:08;7.70;61.20
75819;DHT22;64453;51.944;9.796;2024-03-07T04:24:36;7.60;61.50
75819;DHT22;64453;51.944;9.796;2024-03-07T04:27:04;7.60;61.60
75819;DHT22;64453;51.944;9.796;2024-03-07T04:29:31;7.30;61.90
75819;DHT22;64453;51.944;9.796;2024-03-07T04:31:59;7.20;62.20
75819;DHT22;64453;51.944;9.796;2024-03-07T04:34:26;7.50;62.40
75819;DHT22;64453;51.944;9.796;2024-03-07T04:36:56;7.60;61.80
75819;DHT22;64453;51.944;9.796;2024-03-07T04:39:25;7.70;61.50
75819;DHT22;64453;51.944;9.796;2024-03-07T04:41:58;7.80;61.60
75819;DHT22;64453;51.944;9.796;2024-03-07T04:44:26;7.80;61.20
75819;DHT22;64453;51.944;9.796;2024-03-07T04:46:53;7.80;61.50
75819;DHT22;64453;51.944;9.796;2024-03-07T04:49:22;7.80;61.90
75819;DHT22;64453;51.944;9.796;2024-03-07T04:51:50;7.80;61.80
75819;DHT22;64453;51.944;9.796;2024-03-07T04:54:17;7.80;61.80
75819;DHT22;64453;51.944;9.796;2024-03-07T04:56:46;7.90;61.90
75819;DHT22;64453;51.944;9.796;2024-03-07T04:59:13;8.00;61.80
75819;DHT22;64453;51.944;9.796;2024-03-07T05:01:41;8.00;61.70
75819;DHT22;64453;51.944;9.796;2024-03-07T05:04:09;7.90;61.80
75819;DHT22;64453;51.944;9.796;2024-03-07T05:06:37;8.00;61.90
75819;DHT22;64453;51.944;9.796;2024-03-07T05:09:05;8.00;62.00
75819;DHT22;64453;51.944;9.796;2024-03-07T05:11:35;8.00;61.90
75819;DHT22;64453;51.944;9.796;2024-03-07T05:14:04;8.10;61.70
75819;DHT22;64453;51.944;9.796;2024-03-07T05:16:31;8.10;61.60
75819;DHT22;64453;51.944;9.796;2024-03-07T05:18:58;8.10;61.90
75819;DHT22;64453;51.944;9.796;2024-03-07T05:21:25;8.00;61.80
75819;DHT22;64453;51.944;9.796;2024-03-07T05:24:06;7.90;62.00
75819;DHT22;64453;51.944;9.796;2024-03-07T05:26:34;7.90;61.70
75819;DHT22;64453;51.944;9.796;2024-03-07T05:29:04;8.00;62.00
75819;DHT22;64453;51.944;9.796;2024-03-07T05:31:33;8.10;62.40
75819;DHT22;64453;51.944;9.796;2024-03-07T05:34:01;8.00;62.50
75819;DHT22;64453;51.944;9.796;2024-03-07T05:36:30;8.00;62.30
75819;DHT22;64453;51.944;9.796;2024-03-07T05:38:58;7.90;62.50
75819;DHT22;64453;51.944;9.796;2024-03-07T05:41:25;7.80;63.00
75819;DHT22;64453;51.944;9.796;2024-03-07T05:43:55;7.90;63.00
75819;DHT22;64453;51.944;9.796;2024-03-07T05:46:23;8.00;62.80
75819;DHT22;64453;51.944;9.796;2024-03-07T05:48:50;8.10;62.60
75819;DHT22;64453;51.944;9.796;2024-03-07T05:51:21;8.00;63.20
75819;DHT22;64453;51.944;9.796;2024-03-07T05:53:49;8.00;63.30
75819;DHT22;64453;51.944;9.796;2024-03-07T05:56:16;8.10;63.40
75819;DHT22;64453;51.944;9.796;2024-03-07T05:58:44;8.00;63.00
75819;DHT22;64453;51.944;9.796;2024-03-07T06:01:10;8.20;63.20
75819;DHT22;64453;51.944;9.796;2024-03-07T06:03:39;8.10;63.00
75819;DHT22;64453;51.944;9.796;2024-03-07T06:06:06;8.20;62.80
75819;DHT22;64453;51.944;9.796;2024-03-07T06:08:37;8.20;62.70
75819;DHT22;64453;51.944;9.796;2024-03-07T06:11:07;8.20;62.70
75819;DHT22;64453;51.944;9.796;2024-03-07T06:13:35;8.20;62.70
75819;DHT22;64453;51.944;9.796;2024-03-07T06:16:02;8.20;62.50
75819;DHT22;64453;51.944;9.796;2024-03-07T06:18:33;8.30;62.80
75819;DHT22;64453;51.944;9.796;2024-03-07T06:21:03;8.30;62.80
75819;DHT22;64453;51.944;9.796;2024-03-07T06:23:32;8.10;62.90
75819;DHT22;64453;51.944;9.796;2024-03-07T06:25:58;8.10;63.20
75819;DHT22;64453;51.944;9.796;2024-03-07T06:28:26;8.00;63.70
75819;DHT22;64453;51.944;9.796;2024-03-07T06:30:55;8.00;63.90
75819;DHT22;64453;51.944;9.796;2024-03-07T06:33:22;8.10;63.90
75819;DHT22;64453;51.944;9.796;2024-03-07T06:35:51;8.20;63.80
75819;DHT22;64453;51.944;9.796;2024-03-07T06:38:19;8.20;63.50
75819;DHT22;64453;51.944;9.796;2024-03-07T06:40:46;8.10;63.40
75819;DHT22;64453;51.944;9.796;2024-03-07T06:43:14;8.00;63.50
75819;DHT22;64453;51.944;9.796;2024-03-07T06:45:41;7.90;63.70
75819;DHT22;64453;51.944;9.796;2024-03-07T06:48:08;8.20;63.80
75819;DHT22;64453;51.944;9.796;2024-03-07T06:50:36;8.00;63.80
75819;DHT22;64453;51.944;9.796;2024-03-07T06:53:03;7.90;64.10
75819;DHT22;64453;51.944;9.796;2024-03-07T06:55:33;8.10;64.60
75819;DHT22;64453;51.944;9.796;2024-03-07T06:58:00;8.20;64.60
75819;DHT22;64453;51.944;9.796;2024-03-07T07:00:30;8.30;64.40
75819;DHT22;64453;51.944;9.796;2024-03-07T07:03:00;8.10;64.40
75819;DHT22;64453;51.944;9.796;2024-03-07T07:05:30;8.00;64.60
75819;DHT22;64453;51.944;9.796;2024-03-07T07:07:57;8.20;64.90
75819;DHT22;64453;51.944;9.796;2024-03-07T07:10:24;8.30;64.50
75819;DHT22;64453;51.944;9.796;2024-03-07T07:12:53;8.20;64.60
75819;DHT22;64453;51.944;9.796;2024-03-07T07:15:21;8.10;65.10
75819;DHT22;64453;51.944;9.796;2024-03-07T07:17:48;8.10;65.20
75819;DHT22;64453;51.944;9.796;2024-03-07T07:20:18;8.40;65.30
75819;DHT22;64453;51.944;9.796;2024-03-07T07:22:47;8.40;65.50
75819;DHT22;64453;51.944;9.796;2024-03-07T07:25:14;8.30;65.50
75819;DHT22;64453;51.944;9.796;2024-03-07T07:27:43;8.40;65.70
75819;DHT22;64453;51.944;9.796;2024-03-07T07:30:14;8.20;66.00
75819;DHT22;64453;51.944;9.796;2024-03-07T07:32:43;8.20;66.10
75819;DHT22;64453;51.944;9.796;2024-03-07T07:35:11;8.40;66.30
75819;DHT22;64453;51.944;9.796;2024-03-07T07:37:38;8.40;66.10
75819;DHT22;64453;51.944;9.796;2024-03-07T07:40:06;8.30;66.50
75819;DHT22;64453;51.944;9.796;2024-03-07T07:42:35;8.10;66.70
75819;DHT22;64453;51.944;9.796;2024-03-07T07:45:06;8.20;66.90
75819;DHT22;64453;51.944;9.796;2024-03-07T07:47:38;8.00;67.10
75819;DHT22;64453;51.944;9.796;2024-03-07T07:50:07;8.00;68.00
75819;DHT22;64453;51.944;9.796;2024-03-07T07:52:42;8.00;68.90
75819;DHT22;64453;51.944;9.796;2024-03-07T07:55:10;8.00;69.30
75819;DHT22;64453;51.944;9.796;2024-03-07T07:57:41;8.10;69.40
75819;DHT22;64453;51.944;9.796;2024-03-07T08:00:12;8.00;69.00
75819;DHT22;64453;51.944;9.796;2024-03-07T08:02:49;8.00;69.70
75819;DHT22;64453;51.944;9.796;2024-03-07T08:05:18;7.80;70.70
75819;DHT22;64453;51.944;9.796;2024-03-07T08:07:45;7.80;70.90
75819;DHT22;64453;51.944;9.796;2024-03-07T08:10:13;7.90;70.60
75819;DHT22;64453;51.944;9.796;2024-03-07T08:12:41;8.00;70.30
75819;DHT22;64453;51.944;9.796;2024-03-07T08:15:09;7.90;70.60
75819;DHT22;64453;51.944;9.796;2024-03-07T08:17:40;8.00;71.00
75819;DHT22;64453;51.944;9.796;2024-03-07T08:20:12;8.30;70.80
75819;DHT22;64453;51.944;9.796;2024-03-07T08:22:40;8.30;71.60
75819;DHT22;64453;51.944;9.796;2024-03-07T08:25:08;8.40;70.80
75819;DHT22;64453;51.944;9.796;2024-03-07T08:27:36;8.40;71.00
75819;DHT22;64453;51.944;9.796;2024-03-07T08:30:05;8.50;71.20
75819;DHT22;64453;51.944;9.796;2024-03-07T08:32:33;8.20;70.80
75819;DHT22;64453;51.944;9.796;2024-03-07T08:35:03;8.30;71.80
75819;DHT22;64453;51.944;9.796;2024-03-07T08:37:34;8.60;71.80
75819;DHT22;64453;51.944;9.796;2024-03-07T08:40:02;8.60;71.60
75819;DHT22;64453;51.944;9.796;2024-03-07T08:42:32;8.70;71.60
75819;DHT22;64453;51.944;9.796;2024-03-07T08:44:59;8.60;71.40
75819;DHT22;64453;51.944;9.796;2024-03-07T08:47:27;8.50;71.70
75819;DHT22;64453;51.944;9.796;2024-03-07T08:49:56;8.70;72.20
75819;DHT22;64453;51.944;9.796;2024-03-07T08:52:22;8.70;72.10
75819;DHT22;64453;51.944;9.796;2024-03-07T08:54:51;8.70;72.20
75819;DHT22;64453;51.944;9.796;2024-03-07T08:57:18;8.70;72.10
75819;DHT22;64453;51.944;9.796;2024-03-07T08:59:45;8.50;72.40
75819;DHT22;64453;51.944;9.796;2024-03-07T09:02:12;8.70;72.80
75819;DHT22;64453;51.944;9.796;2024-03-07T09:04:40;8.80;72.70
75819;DHT22;64453;51.944;9.796;2024-03-07T09:07:07;8.80;72.50
75819;DHT22;64453;51.944;9.796;2024-03-07T09:09:34;8.50;72.40
75819;DHT22;64453;51.944;9.796;2024-03-07T09:12:02;8.70;73.40
75819;DHT22;64453;51.944;9.796;2024-03-07T09:14:30;8.70;73.60
75819;DHT22;64453;51.944;9.796;2024-03-07T09:16:56;8.50;73.10
75819;DHT22;64453;51.944;9.796;2024-03-07T09:19:23;8.20;75.10
75819;DHT22;64453;51.944;9.796;2024-03-07T09:21:51;8.50;75.40
75819;DHT22;64453;51.944;9.796;2024-03-07T09:24:18;8.40;74.50
75819;DHT22;64453;51.944;9.796;2024-03-07T09:26:48;8.50;75.70
75819;DHT22;64453;51.944;9.796;2024-03-07T09:29:16;8.40;76.00
75819;DHT22;64453;51.944;9.796;2024-03-07T09:31:43;8.30;76.60
75819;DHT22;64453;51.944;9.796;2024-03-07T09:34:10;8.40;77.40
75819;DHT22;64453;51.944;9.796;2024-03-07T09:36:38;8.60;76.30
75819;DHT22;64453;51.944;9.796;2024-03-07T09:39:06;8.80;75.80
75819;DHT22;64453;51.944;9.796;2024-03-07T09:41:33;8.80;75.80
75819;DHT22;64453;51.944;9.796;2024-03-07T09:44:01;8.80;75.50
75819;DHT22;64453;51.944;9.796;2024-03-07T09:46:30;8.80;75.80
75819;DHT22;64453;51.944;9.796;2024-03-07T09:48:58;8.70;75.30
75819;DHT22;64453;51.944;9.796;2024-03-07T09:51:25;8.80;75.30
75819;DHT22;64453;51.944;9.796;2024-03-07T09:53:56;9.00;75.40
75819;DHT22;64453;51.944;9.796;2024-03-07T09:56:27;9.10;75.10
75819;DHT22;64453;51.944;9.796;2024-03-07T09:58:57;9.10;75.10
75819;DHT22;64453;51.944;9.796;2024-03-07T10:01:26;9.30;75.00
75819;DHT22;64453;51.944;9.796;2024-03-07T10:03:58;9.20;74.70
75819;DHT22;64453;51.944;9.796;2024-03-07T10:06:27;9.30;75.20
75819;DHT22;64453;51.944;9.796;2024-03-07T10:08:55;9.20;75.60
75819;DHT22;64453;51.944;9.796;2024-03-07T10:11:23;9.40;75.10
75819;DHT22;64453;51.944;9.796;2024-03-07T10:13:50;9.50;75.10
75819;DHT22;64453;51.944;9.796;2024-03-07T10:16:17;9.50;75.10
75819;DHT22;64453;51.944;9.796;2024-03-07T10:18:44;9.70;75.10
75819;DHT22;64453;51.944;9.796;2024-03-07T10:21:14;9.60;74.80
75819;DHT22;64453;51.944;9.796;2024-03-07T10:23:42;9.70;74.70
75819;DHT22;64453;51.944;9.796;2024-03-07T10:26:10;9.80;74.10
75819;DHT22;64453;51.944;9.796;2024-03-07T10:28:37;9.70;73.70
75819;DHT22;64453;51.944;9.796;2024-03-07T10:31:05;9.80;73.40
75819;DHT22;64453;51.944;9.796;2024-03-07T10:33:37;9.90;73.20
75819;DHT22;64453;51.944;9.796;2024-03-07T10:36:05;9.90;73.00
75819;DHT22;64453;51.944;9.796;2024-03-07T10:38:37;9.80;72.60
75819;DHT22;64453;51.944;9.796;2024-03-07T10:41:06;9.90;72.40
75819;DHT22;64453;51.944;9.796;2024-03-07T10:43:36;9.90;72.20
75819;DHT22;64453;51.944;9.796;2024-03-07T10:46:08;10.10;71.10
75819;DHT22;64453;51.944;9.796;2024-03-07T10:48:39;10.10;70.80
75819;DHT22;64453;51.944;9.796;2024-03-07T10:51:14;10.10;70.70
75819;DHT22;64453;51.944;9.796;2024-03-07T10:53:53;10.20;70.70
75819;DHT22;64453;51.944;9.796;2024-03-07T10:56:33;10.20;70.10
75819;DHT22;64453;51.944;9.796;2024-03-07T10:59:16;10.10;70.50
75819;DHT22;64453;51.944;9.796;2024-03-07T11:01:49;10.30;69.90
75819;DHT22;64453;51.944;9.796;2024-03-07T11:04:22;10.30;69.60
75819;DHT22;64453;51.944;9.796;2024-03-07T11:06:49;10.30;68.90
75819;DHT22;64453;51.944;9.796;2024-03-07T11:09:18;10.40;69.10
75819;DHT22;64453;51.944;9.796;2024-03-07T11:11:49;10.50;68.80
75819;DHT22;64453;51.944;9.796;2024-03-07T11:14:17;10.50;68.30
75819;DHT22;64453;51.944;9.796;2024-03-07T11:16:44;10.60;67.90
75819;DHT22;64453;51.944;9.796;2024-03-07T11:19:18;10.70;68.20
75819;DHT22;64453;51.944;9.796;2024-03-07T11:21:53;10.70;66.90
75819;DHT22;64453;51.944;9.796;2024-03-07T11:24:29;10.70;66.30
75819;DHT22;64453;51.944;9.796;2024-03-07T11:26:59;10.60;64.70
75819;DHT22;64453;51.944;9.796;2024-03-07T11:29:40;10.80;65.20
75819;DHT22;64453;51.944;9.796;2024-03-07T11:32:11;10.90;64.70
75819;DHT22;64453;51.944;9.796;2024-03-07T11:34:40;10.90;65.00
75819;DHT22;64453;51.944;9.796;2024-03-07T11:37:08;10.90;64.70
75819;DHT22;64453;51.944;9.796;2024-03-07T11:39:45;10.90;62.80
75819;DHT22;64453;51.944;9.796;2024-03-07T11:42:20;11.00;62.40
75819;DHT22;64453;51.944;9.796;2024-03-07T11:44:51;11.10;61.40
75819;DHT22;64453;51.944;9.796;2024-03-07T11:47:18;11.10;59.50
75819;DHT22;64453;51.944;9.796;2024-03-07T11:49:45;11.10;59.00
75819;DHT22;64453;51.944;9.796;2024-03-07T11:52:14;11.10;58.70
75819;DHT22;64453;51.944;9.796;2024-03-07T11:54:43;11.00;58.70
75819;DHT22;64453;51.944;9.796;2024-03-07T11:57:12;10.90;58.00
75819;DHT22;64453;51.944;9.796;2024-03-07T11:59:41;11.00;57.60
75819;DHT22;64453;51.944;9.796;2024-03-07T12:02:12;11.10;57.60
75819;DHT22;64453;51.944;9.796;2024-03-07T12:04:40;11.10;57.50
75819;DHT22;64453;51.944;9.796;2024-03-07T12:07:08;11.10;57.20
75819;DHT22;64453;51.944;9.796;2024-03-07T12:09:37;10.90;56.40
75819;DHT22;64453;51.944;9.796;2024-03-07T12:12:06;11.00;56.80
75819;DHT22;64453;51.944;9.796;2024-03-07T12:14:34;11.10;57.30
75819;DHT22;64453;51.944;9.796;2024-03-07T12:17:02;11.10;56.60
75819;DHT22;64453;51.944;9.796;2024-03-07T12:19:32;11.00;55.00
75819;DHT22;64453;51.944;9.796;2024-03-07T12:22:00;11.00;55.30
75819;DHT22;64453;51.944;9.796;2024-03-07T12:24:28;11.10;56.10
75819;DHT22;64453;51.944;9.796;2024-03-07T12:27:06;11.20;56.10
75819;DHT22;64453;51.944;9.796;2024-03-07T12:29:35;11.20;55.70
75819;DHT22;64453;51.944;9.796;2024-03-07T12:32:05;11.20;55.60
75819;DHT22;64453;51.944;9.796;2024-03-07T12:34:33;11.40;55.70
75819;DHT22;64453;51.944;9.796;2024-03-07T12:37:06;11.30;55.30
75819;DHT22;64453;51.944;9.796;2024-03-07T12:39:34;11.30;54.60
75819;DHT22;64453;51.944;9.796;2024-03-07T12:42:06;11.40;54.20
75819;DHT22;64453;51.944;9.796;2024-03-07T12:44:39;11.50;54.40
75819;DHT22;64453;51.944;9.796;2024-03-07T12:47:09;11.50;53.50
75819;DHT22;64453;51.944;9.796;2024-03-07T12:49:37;11.50;53.80
75819;DHT22;64453;51.944;9.796;2024-03-07T12:52:05;11.60;53.90
75819;DHT22;64453;51.944;9.796;2024-03-07T12:54:41;11.60;53.20
75819;DHT22;64453;51.944;9.796;2024-03-07T12:57:10;11.60;52.70
75819;DHT22;64453;51.944;9.796;2024-03-07T12:59:38;11.70;52.50
75819;DHT22;64453;51.944;9.796;2024-03-07T13:02:06;11.70;52.50
75819;DHT22;64453;51.944;9.796;2024-03-07T13:04:33;11.70;52.20
75819;DHT22;64453;51.944;9.796;2024-03-07T13:07:03;11.60;50.80
75819;DHT22;64453;51.944;9.796;2024-03-07T13:09:30;11.60;50.50
75819;DHT22;64453;51.944;9.796;2024-03-07T13:11:57;11.60;50.20
75819;DHT22;64453;51.944;9.796;2024-03-07T13:14:27;11.60;50.60
75819;DHT22;64453;51.944;9.796;2024-03-07T13:16:59;11.50;50.40
75819;DHT22;64453;51.944;9.796;2024-03-07T13:19:26;11.60;50.70
75819;DHT22;64453;51.944;9.796;2024-03-07T13:21:54;11.60;51.00
75819;DHT22;64453;51.944;9.796;2024-03-07T13:24:22;11.70;51.50
75819;DHT22;64453;51.944;9.796;2024-03-07T13:26:49;11.60;50.00
75819;DHT22;64453;51.944;9.796;2024-03-07T13:29:17;11.70;50.30
75819;DHT22;64453;51.944;9.796;2024-03-07T13:31:51;11.70;49.70
75819;DHT22;64453;51.944;9.796;2024-03-07T13:34:21;11.70;49.60
75819;DHT22;64453;51.944;9.796;2024-03-07T13:36:51;11.70;49.90
75819;DHT22;64453;51.944;9.796;2024-03-07T13:39:18;11.80;50.50
75819;DHT22;64453;51.944;9.796;2024-03-07T13:41:45;11.80;50.20
75819;DHT22;64453;51.944;9.796;2024-03-07T13:44:13;11.80;49.90
75819;DHT22;64453;51.944;9.796;2024-03-07T13:46:41;11.80;49.90
75819;DHT22;64453;51.944;9.796;2024-03-07T13:49:09;11.90;49.40
75819;DHT22;64453;51.944;9.796;2024-03-07T13:51:39;11.90;49.10
75819;DHT22;64453;51.944;9.796;2024-03-07T13:54:15;11.90;49.10
75819;DHT22;64453;51.944;9.796;2024-03-07T13:57:08;11.90;49.00
75819;DHT22;64453;51.944;9.796;2024-03-07T14:00:12;11.80;48.10
75819;DHT22;64453;51.944;9.796;2024-03-07T14:06:05;11.90;47.80
75819;DHT22;64453;51.944;9.796;2024-03-07T14:09:13;11.80;48.10
75819;DHT22;64453;51.944;9.796;2024-03-07T14:12:17;11.90;48.20
75819;DHT22;64453;51.944;9.796;2024-03-07T14:22:04;12.10;48.40
75819;DHT22;64453;51.944;9.796;2024-03-07T14:27:58;12.10;46.90
75819;DHT22;64453;51.944;9.796;2024-03-07T14:30:41;12.30;46.60
75819;DHT22;64453;51.944;9.796;2024-03-07T14:33:11;12.30;46.20
75819;DHT22;64453;51.944;9.796;2024-03-07T14:36:02;12.40;46.00
75819;DHT22;64453;51.944;9.796;2024-03-07T14:38:46;12.50;46.50
75819;DHT22;64453;51.944;9.796;2024-03-07T14:41:16;12.50;46.40
75819;DHT22;64453;51.944;9.796;2024-03-07T14:43:44;12.50;46.40
75819;DHT22;64453;51.944;9.796;2024-03-07T14:46:13;12.70;46.70
75819;DHT22;64453;51.944;9.796;2024-03-07T14:48:41;12.70;45.70
75819;DHT22;64453;51.944;9.796;2024-03-07T14:51:10;12.70;45.50
75819;DHT22;64453;51.944;9.796;2024-03-07T14:53:40;12.70;44.90
75819;DHT22;64453;51.944;9.796;2024-03-07T14:56:08;12.80;45.00
75819;DHT22;64453;51.944;9.796;2024-03-07T14:58:36;12.80;44.90
75819;DHT22;64453;51.944;9.796;2024-03-07T15:01:05;12.80;44.90
75819;DHT22;64453;51.944;9.796;2024-03-07T15:03:32;12.90;45.10
75819;DHT22;64453;51.944;9.796;2024-03-07T15:06:00;12.90;45.00
75819;DHT22;64453;51.944;9.796;2024-03-07T15:08:27;13.00;44.90
75819;DHT22;64453;51.944;9.796;2024-03-07T15:10:59;13.00;44.70
75819;DHT22;64453;51.944;9.796;2024-03-07T15:13:38;13.10;44.50
75819;DHT22;64453;51.944;9.796;2024-03-07T15:16:05;13.10;44.60
75819;DHT22;64453;51.944;9.796;2024-03-07T15:18:33;13.10;43.90
75819;DHT22;64453;51.944;9.796;2024-03-07T15:21:00;13.10;43.50
75819;DHT22;64453;51.944;9.796;2024-03-07T15:23:27;13.10;43.50
75819;DHT22;64453;51.944;9.796;2024-03-07T15:25:54;13.20;43.60
75819;DHT22;64453;51.944;9.796;2024-03-07T15:28:22;13.30;43.20
75819;DHT22;64453;51.944;9.796;2024-03-07T15:30:49;13.40;43.40
75819;DHT22;64453;51.944;9.796;2024-03-07T15:33:16;13.40;43.00
75819;DHT22;64453;51.944;9.796;2024-03-07T15:35:44;13.40;43.00
75819;DHT22;64453;51.944;9.796;2024-03-07T15:38:12;13.20;42.30
75819;DHT22;64453;51.944;9.796;2024-03-07T15:40:40;13.30;42.50
75819;DHT22;64453;51.944;9.796;2024-03-07T15:43:08;13.40;42.70
75819;DHT22;64453;51.944;9.796;2024-03-07T15:45:35;13.50;42.70
75819;DHT22;64453;51.944;9.796;2024-03-07T15:48:02;13.90;42.70
75819;DHT22;64453;51.944;9.796;2024-03-07T15:50:36;14.50;41.50
75819;DHT22;64453;51.944;9.796;2024-03-07T15:53:03;14.70;40.70
75819;DHT22;64453;51.944;9.796;2024-03-07T15:55:31;14.50;40.00
75819;DHT22;64453;51.944;9.796;2024-03-07T15:58:01;14.40;40.10
75819;DHT22;64453;51.944;9.796;2024-03-07T16:00:33;14.20;40.40
75819;DHT22;64453;51.944;9.796;2024-03-07T16:03:02;13.90;40.20
75819;DHT22;64453;51.944;9.796;2024-03-07T16:05:31;13.90;40.80